createdAt,value
2019-01-21T00:00:39.212Z,101869.28
2019-01-21T00:03:14.305Z,101861.03
2019-01-21T00:05:38.563Z,101863.72
2019-01-21T00:08:07.267Z,101869.81
2019-01-21T00:10:35.930Z,101870.37
2019-01-21T00:13:05.409Z,101864.51
2019-01-21T00:15:34.028Z,101862.53
2019-01-21T00:18:02.809Z,101853.37
2019-01-21T00:20:31.403Z,101854.31
2019-01-21T00:22:59.997Z,101852.73
2019-01-21T00:25:28.585Z,101857.29
2019-01-21T00:27:57.300Z,101854.81
2019-01-21T00:30:25.893Z,101855.88
2019-01-21T00:32:54.638Z,101849.95
2019-01-21T00:35:23.223Z,101851.97
2019-01-21T00:37:51.846Z,101855.70
2019-01-21T00:40:20.432Z,101853.91
2019-01-21T00:42:49.045Z,101858.30
2019-01-21T00:45:17.710Z,101858.39
2019-01-21T00:47:46.323Z,101857.27
2019-01-21T00:50:15.046Z,101853.02
2019-01-21T00:52:43.663Z,101853.31
2019-01-21T00:55:13.794Z,101850.73
2019-01-21T00:57:42.513Z,101848.77
2019-01-21T01:00:20.190Z,101852.35
2019-01-21T01:02:48.980Z,101851.63
2019-01-21T01:05:18.517Z,101857.61
2019-01-21T01:07:47.223Z,101856.39
2019-01-21T01:10:15.857Z,101851.34
2019-01-21T01:12:44.467Z,101851.97
2019-01-21T01:15:14.723Z,101860.20
2019-01-21T01:17:43.460Z,101856.11
2019-01-21T01:20:17.399Z,101854.81
2019-01-21T01:22:46.121Z,101860.42
2019-01-21T01:25:14.674Z,101857.61
2019-01-21T01:27:43.362Z,101860.52
2019-01-21T01:30:14.365Z,101860.75
2019-01-21T01:32:43.024Z,101867.31
2019-01-21T01:35:12.945Z,101859.92
2019-01-21T01:37:41.740Z,101860.58
2019-01-21T01:40:15.248Z,101862.98
2019-01-21T01:42:44.424Z,101862.58
2019-01-21T01:45:21.230Z,101856.72
2019-01-21T01:47:53.420Z,101860.25
2019-01-21T01:50:21.984Z,101863.88
2019-01-21T01:52:50.636Z,101854.54
2019-01-21T01:55:19.268Z,101866.03
2019-01-21T01:57:47.948Z,101852.97
2019-01-21T02:00:16.957Z,101859.73
2019-01-21T02:02:45.686Z,101859.12
2019-01-21T02:05:14.267Z,101858.56
2019-01-21T02:07:42.889Z,101860.20
2019-01-21T02:10:15.710Z,101854.97
2019-01-21T02:12:45.028Z,101858.89
2019-01-21T02:15:15.740Z,101855.94
2019-01-21T02:17:44.469Z,101864.35
2019-01-21T02:20:18.267Z,101861.61
2019-01-21T02:22:53.037Z,101864.39
2019-01-21T02:25:24.822Z,101864.45
2019-01-21T02:28:05.161Z,101874.34
2019-01-21T02:30:48.546Z,101867.86
2019-01-21T02:33:29.157Z,101870.05
2019-01-21T02:36:06.613Z,101863.16
2019-01-21T02:38:50.461Z,101868.49
2019-01-21T02:41:22.244Z,101857.50
2019-01-21T02:43:56.750Z,101860.32
2019-01-21T02:46:46.585Z,101853.47
2019-01-21T02:49:53.227Z,101858.55
2019-01-21T02:52:44.588Z,101857.67
2019-01-21T02:55:31.147Z,101851.39
2019-01-21T02:58:31.510Z,101847.58
2019-01-21T03:01:09.073Z,101843.95
2019-01-21T03:04:00.216Z,101842.52
2019-01-21T03:06:32.020Z,101848.22
2019-01-21T03:09:10.034Z,101849.56
2019-01-21T03:12:01.492Z,101846.06
2019-01-21T03:14:52.783Z,101844.89
2019-01-21T03:17:42.715Z,101849.02
2019-01-21T03:20:14.496Z,101846.87
2019-01-21T03:22:52.019Z,101845.90
2019-01-21T03:25:56.950Z,101842.77
2019-01-21T03:29:02.085Z,101852.39
2019-01-21T03:31:49.033Z,101852.16
2019-01-21T03:34:32.857Z,101841.27
2019-01-21T03:37:10.394Z,101845.91
2019-01-21T03:39:45.174Z,101847.19
2019-01-21T03:42:20.367Z,101853.53
2019-01-21T03:45:04.215Z,101849.54
2019-01-21T03:47:36.126Z,101844.69
2019-01-21T03:50:10.672Z,101845.08
2019-01-21T03:53:00.153Z,101841.72
2019-01-21T03:55:29.033Z,101850.06
2019-01-21T03:58:32.269Z,101851.89
2019-01-21T04:01:06.575Z,101855.31
2019-01-21T04:03:47.015Z,101844.14
2019-01-21T04:06:21.854Z,101852.80
2019-01-21T04:09:10.062Z,101848.23
2019-01-21T04:11:47.794Z,101851.25
2019-01-21T04:14:52.993Z,101843.23
2019-01-21T04:18:00.161Z,101843.27
2019-01-21T04:20:38.045Z,101843.61
2019-01-21T04:23:34.362Z,101841.77
2019-01-21T04:26:29.195Z,101837.70
2019-01-21T04:29:03.635Z,101833.75
2019-01-21T04:31:47.308Z,101829.09
2019-01-21T04:34:39.945Z,101828.64
2019-01-21T04:37:11.701Z,101823.44
2019-01-21T04:39:43.480Z,101816.41
2019-01-21T04:42:34.919Z,101808.23
2019-01-21T04:45:18.776Z,101814.22
2019-01-21T04:47:53.170Z,101813.94
2019-01-21T04:50:27.897Z,101816.08
2019-01-21T04:53:11.357Z,101813.27
2019-01-21T04:55:56.904Z,101816.26
2019-01-21T04:58:28.671Z,101817.53
2019-01-21T05:01:15.865Z,101816.53
2019-01-21T05:03:59.585Z,101818.83
2019-01-21T05:06:49.305Z,101820.14
2019-01-21T05:09:33.798Z,101812.22
2019-01-21T05:12:35.652Z,101819.94
2019-01-21T05:15:39.450Z,101811.25
2019-01-21T05:18:14.053Z,101816.37
2019-01-21T05:21:02.249Z,101808.41
2019-01-21T05:23:52.189Z,101806.30
2019-01-21T05:26:42.025Z,101805.33
2019-01-21T05:29:33.216Z,101800.21
2019-01-21T05:32:14.067Z,101797.63
2019-01-21T05:35:14.579Z,101796.66
2019-01-21T05:37:56.249Z,101798.92
2019-01-21T05:40:41.069Z,101799.97
2019-01-21T05:43:38.604Z,101802.20
2019-01-21T05:46:26.932Z,101803.50
2019-01-21T05:49:30.327Z,101794.48
2019-01-21T05:52:13.469Z,101798.41
2019-01-21T05:54:57.119Z,101806.30
2019-01-21T05:57:53.023Z,101805.85
2019-01-21T06:00:40.028Z,101816.60
2019-01-21T06:03:26.559Z,101806.93
2019-01-21T06:06:07.384Z,101811.32
2019-01-21T06:09:04.374Z,101814.98
2019-01-21T06:11:51.212Z,101815.03
2019-01-21T06:14:29.105Z,101818.06
2019-01-21T06:17:09.634Z,101815.53
2019-01-21T06:20:00.744Z,101806.98
2019-01-21T06:22:32.504Z,101808.69
2019-01-21T06:25:19.355Z,101809.92
2019-01-21T06:27:59.807Z,101813.27
2019-01-21T06:30:37.300Z,101819.13
2019-01-21T06:33:11.827Z,101814.57
2019-01-21T06:36:04.608Z,101826.02
2019-01-21T06:38:45.001Z,101819.39
2019-01-21T06:41:33.490Z,101824.80
2019-01-21T06:44:14.272Z,101830.67
2019-01-21T06:46:55.050Z,101830.64
2019-01-21T06:49:49.275Z,101838.16
2019-01-21T06:52:26.621Z,101838.56
2019-01-21T06:55:13.640Z,101839.27
2019-01-21T06:57:57.401Z,101831.48
2019-01-21T07:00:35.380Z,101830.14
2019-01-21T07:03:16.276Z,101825.54
2019-01-21T07:06:10.267Z,101828.30
2019-01-21T07:08:53.880Z,101831.12
2019-01-21T07:11:31.118Z,101829.87
2019-01-21T07:14:23.961Z,101832.83
2019-01-21T07:17:01.933Z,101826.39
2019-01-21T07:19:46.302Z,101835.31
2019-01-21T07:22:34.902Z,101832.48
2019-01-21T07:25:27.276Z,101835.13
2019-01-21T07:28:23.020Z,101824.88
2019-01-21T07:31:06.636Z,101831.17
2019-01-21T07:33:53.604Z,101842.12
2019-01-21T07:36:36.972Z,101849.91
2019-01-21T07:39:17.337Z,101846.98
2019-01-21T07:41:49.165Z,101838.19
2019-01-21T07:44:23.786Z,101844.73
2019-01-21T07:47:04.603Z,101844.80
2019-01-21T07:49:58.774Z,101837.08
2019-01-21T07:52:47.314Z,101831.42
2019-01-21T07:55:21.989Z,101837.39
2019-01-21T07:58:24.113Z,101833.81
2019-01-21T08:01:07.769Z,101842.56
2019-01-21T08:03:54.673Z,101831.61
2019-01-21T08:06:29.249Z,101835.98
2019-01-21T08:09:17.413Z,101832.05
2019-01-21T08:11:54.992Z,101837.72
2019-01-21T08:14:32.753Z,101841.52
2019-01-21T08:17:21.215Z,101837.99
2019-01-21T08:19:53.087Z,101837.38
2019-01-21T08:22:58.079Z,101836.11
2019-01-21T08:25:42.331Z,101835.65
2019-01-21T08:28:17.259Z,101841.02
2019-01-21T08:31:11.303Z,101839.13
2019-01-21T08:34:04.182Z,101841.89
2019-01-21T08:36:47.935Z,101845.95
2019-01-21T08:39:43.583Z,101846.04
2019-01-21T08:42:39.719Z,101844.13
2019-01-21T08:45:23.409Z,101846.08
2019-01-21T08:48:11.759Z,101848.14
2019-01-21T08:50:46.263Z,101855.64
2019-01-21T08:53:37.703Z,101852.04
2019-01-21T08:56:15.267Z,101848.44
2019-01-21T08:59:05.209Z,101846.20
2019-01-21T09:01:45.301Z,101843.45
2019-01-21T09:04:36.591Z,101842.40
2019-01-21T09:07:24.952Z,101840.72
2019-01-21T09:10:02.243Z,101841.47
2019-01-21T09:12:50.282Z,101854.97
2019-01-21T09:15:28.288Z,101859.37
2019-01-21T09:18:02.911Z,101859.06
2019-01-21T09:20:54.227Z,101853.19
2019-01-21T09:23:42.266Z,101853.52
2019-01-21T09:26:19.762Z,101854.34
2019-01-21T09:28:51.620Z,101857.75
2019-01-21T09:31:29.419Z,101862.38
2019-01-21T09:34:12.953Z,101857.70
2019-01-21T09:36:53.825Z,101860.81
2019-01-21T09:39:43.912Z,101862.78
2019-01-21T09:42:27.670Z,101857.95
2019-01-21T09:45:14.460Z,101858.38
2019-01-21T09:47:42.134Z,101856.20
2019-01-21T09:50:10.809Z,101854.86
2019-01-21T09:52:39.598Z,101854.06
2019-01-21T09:55:08.997Z,101852.52
2019-01-21T09:57:38.688Z,101854.06
2019-01-21T10:00:13.211Z,101852.63
2019-01-21T10:02:42.536Z,101849.78
2019-01-21T10:05:11.431Z,101846.71
2019-01-21T10:07:52.819Z,101849.82
2019-01-21T10:10:33.378Z,101847.17
2019-01-21T10:13:25.614Z,101844.78
2019-01-21T10:16:12.527Z,101839.33
2019-01-21T10:19:00.828Z,101836.86
2019-01-21T10:21:50.350Z,101837.59
2019-01-21T10:24:36.800Z,101825.77
2019-01-21T10:27:08.625Z,101818.59
2019-01-21T10:29:43.228Z,101817.53
2019-01-21T10:32:30.351Z,101815.77
2019-01-21T10:35:08.354Z,101804.67
2019-01-21T10:37:52.916Z,101810.44
2019-01-21T10:40:39.722Z,101812.66
2019-01-21T10:43:14.551Z,101798.61
2019-01-21T10:46:04.698Z,101788.94
2019-01-21T10:48:54.419Z,101791.86
2019-01-21T10:51:42.562Z,101794.61
2019-01-21T10:54:14.527Z,101792.20
2019-01-21T10:56:52.121Z,101779.77
2019-01-21T10:59:26.664Z,101777.38
2019-01-21T11:02:15.092Z,101775.09
2019-01-21T11:04:55.551Z,101771.36
2019-01-21T11:07:50.480Z,101759.59
2019-01-21T11:10:24.894Z,101760.94
2019-01-21T11:13:02.571Z,101749.88
2019-01-21T11:15:39.138Z,101755.87
2019-01-21T11:18:16.733Z,101756.25
2019-01-21T11:21:11.019Z,101748.15
2019-01-21T11:23:43.102Z,101746.14
2019-01-21T11:26:34.506Z,101742.50
2019-01-21T11:29:06.675Z,101734.77
2019-01-21T11:31:50.909Z,101728.13
2019-01-21T11:34:40.580Z,101724.48
2019-01-21T11:37:33.324Z,101716.62
2019-01-21T11:40:07.929Z,101718.21
2019-01-21T11:42:42.600Z,101725.83
2019-01-21T11:45:26.445Z,101720.56
2019-01-21T11:48:07.300Z,101721.30
2019-01-21T11:50:42.237Z,101722.75
2019-01-21T11:53:23.122Z,101725.23
2019-01-21T11:56:04.500Z,101725.71
2019-01-21T11:58:55.716Z,101733.36
2019-01-21T12:01:46.514Z,101729.33
2019-01-21T12:04:24.239Z,101729.30
2019-01-21T12:07:20.248Z,101728.20
2019-01-21T12:09:55.173Z,101722.60
2019-01-21T12:12:35.479Z,101722.34
2019-01-21T12:15:22.443Z,101707.70
2019-01-21T12:18:00.141Z,101701.41
2019-01-21T12:20:43.673Z,101689.06
2019-01-21T12:23:30.483Z,101691.32
2019-01-21T12:26:05.215Z,101695.98
2019-01-21T12:28:46.081Z,101698.73
2019-01-21T12:31:34.430Z,101698.44
2019-01-21T12:34:23.081Z,101697.70
2019-01-21T12:36:57.609Z,101698.37
2019-01-21T12:39:40.835Z,101696.23
2019-01-21T12:42:18.735Z,101696.85
2019-01-21T12:45:02.661Z,101699.77
2019-01-21T12:47:45.465Z,101691.88
2019-01-21T12:50:29.130Z,101687.70
2019-01-21T12:53:09.797Z,101673.55
2019-01-21T12:55:44.421Z,101677.84
2019-01-21T12:58:37.070Z,101681.94
2019-01-21T13:01:23.635Z,101672.53
2019-01-21T13:03:58.303Z,101670.03
2019-01-21T13:06:34.543Z,101663.45
2019-01-21T13:09:39.500Z,101664.98
2019-01-21T13:12:35.733Z,101657.91
2019-01-21T13:15:19.950Z,101647.52
2019-01-21T13:17:51.784Z,101631.09
2019-01-21T13:20:32.098Z,101623.56
2019-01-21T13:23:22.182Z,101620.23
2019-01-21T13:26:18.414Z,101625.05
2019-01-21T13:28:53.112Z,101616.52
2019-01-21T13:31:53.618Z,101615.55
2019-01-21T13:34:43.988Z,101610.44
2019-01-21T13:37:31.896Z,101614.75
2019-01-21T13:40:10.214Z,101611.53
2019-01-21T13:42:42.079Z,101611.27
2019-01-21T13:45:16.707Z,101609.20
2019-01-21T13:47:48.481Z,101602.47
2019-01-21T13:50:20.345Z,101606.27
2019-01-21T13:53:14.705Z,101600.88
2019-01-21T13:55:49.494Z,101591.70
2019-01-21T13:58:33.176Z,101585.80
2019-01-21T14:01:13.949Z,101577.84
2019-01-21T14:03:54.400Z,101584.75
2019-01-21T14:06:53.397Z,101573.89
2019-01-21T14:09:58.743Z,101570.47
2019-01-21T14:12:30.705Z,101563.30
2019-01-21T14:15:11.270Z,101564.47
2019-01-21T14:18:05.349Z,101576.06
2019-01-21T14:20:43.622Z,101571.44
2019-01-21T14:23:25.374Z,101567.80
2019-01-21T14:26:08.889Z,101567.95
2019-01-21T14:28:58.874Z,101557.50
2019-01-21T14:32:04.421Z,101552.20
2019-01-21T14:34:42.120Z,101550.67
2019-01-21T14:37:33.531Z,101548.20
2019-01-21T14:40:14.504Z,101539.91
2019-01-21T14:43:08.405Z,101541.36
2019-01-21T14:45:41.777Z,101540.61
2019-01-21T14:48:19.575Z,101540.32
2019-01-21T14:50:57.170Z,101531.02
2019-01-21T14:53:34.572Z,101524.99
2019-01-21T14:56:18.327Z,101522.97
2019-01-21T14:58:56.006Z,101523.73
2019-01-21T15:01:54.890Z,101526.86
2019-01-21T15:04:44.987Z,101527.58
2019-01-21T15:07:16.946Z,101529.88
2019-01-21T15:09:57.618Z,101535.83
2019-01-21T15:12:32.466Z,101528.02
2019-01-21T15:15:25.459Z,101522.53
2019-01-21T15:18:12.645Z,101512.28
2019-01-21T15:20:59.940Z,101513.17
2019-01-21T15:23:49.854Z,101515.09
2019-01-21T15:26:21.721Z,101505.91
2019-01-21T15:28:56.370Z,101505.00
2019-01-21T15:31:34.407Z,101508.13
2019-01-21T15:34:15.393Z,101508.63
2019-01-21T15:36:59.235Z,101502.23
2019-01-21T15:39:34.125Z,101496.09
2019-01-21T15:42:15.128Z,101497.61
2019-01-21T15:44:49.911Z,101504.20
2019-01-21T15:47:24.490Z,101503.55
2019-01-21T15:50:11.699Z,101509.40
2019-01-21T15:52:49.713Z,101508.50
2019-01-21T15:55:39.792Z,101513.48
2019-01-21T15:58:20.054Z,101510.23
2019-01-21T16:01:13.317Z,101514.95
2019-01-21T16:03:51.111Z,101510.66
2019-01-21T16:06:40.433Z,101524.86
2019-01-21T16:09:23.883Z,101514.63
2019-01-21T16:12:11.975Z,101521.02
2019-01-21T16:14:46.060Z,101521.47
2019-01-21T16:17:17.872Z,101519.34
2019-01-21T16:19:46.518Z,101531.43
2019-01-21T16:22:34.854Z,101533.91
2019-01-21T16:25:09.378Z,101531.16
2019-01-21T16:28:00.489Z,101530.41
2019-01-21T16:30:56.519Z,101523.38
2019-01-21T16:33:40.168Z,101518.48
2019-01-21T16:36:21.126Z,101517.17
2019-01-21T16:38:53.377Z,101508.39
2019-01-21T16:41:31.200Z,101505.02
2019-01-21T16:43:59.949Z,101496.80
2019-01-21T16:46:28.548Z,101489.06
2019-01-21T16:48:57.215Z,101479.67
2019-01-21T16:51:25.797Z,101467.31
2019-01-21T16:53:54.513Z,101467.56
2019-01-21T16:56:23.100Z,101457.47
2019-01-21T16:58:51.706Z,101444.88
2019-01-21T17:01:20.292Z,101447.57
2019-01-21T17:03:48.899Z,101447.09
2019-01-21T17:06:17.538Z,101447.34
2019-01-21T17:08:48.987Z,101450.28
2019-01-21T17:11:17.679Z,101448.38
2019-01-21T17:13:46.261Z,101448.56
2019-01-21T17:16:14.928Z,101436.92
2019-01-21T17:18:43.499Z,101440.27
2019-01-21T17:21:12.322Z,101439.30
2019-01-21T17:23:41.613Z,101455.36
2019-01-21T17:26:10.401Z,101455.89
2019-01-21T17:28:38.972Z,101452.52
2019-01-21T17:31:07.625Z,101455.30
2019-01-21T17:33:36.259Z,101455.72
2019-01-21T17:36:05.388Z,101463.50
2019-01-21T17:38:33.972Z,101468.55
2019-01-21T17:41:02.630Z,101472.63
2019-01-21T17:43:31.234Z,101467.95
2019-01-21T17:45:59.933Z,101461.92
2019-01-21T17:48:28.559Z,101459.80
2019-01-21T17:50:57.124Z,101458.78
2019-01-21T17:53:25.811Z,101460.13
2019-01-21T17:55:54.374Z,101457.34
2019-01-21T17:58:23.048Z,101453.55
2019-01-21T18:00:51.624Z,101454.06
2019-01-21T18:03:20.287Z,101451.61
2019-01-21T18:05:48.866Z,101449.44
2019-01-21T18:08:17.475Z,101452.50
2019-01-21T18:10:46.039Z,101451.23
2019-01-21T18:13:14.703Z,101460.22
2019-01-21T18:15:43.264Z,101453.84
2019-01-21T18:18:11.904Z,101444.35
2019-01-21T18:20:40.544Z,101438.03
2019-01-21T18:23:09.328Z,101445.02
2019-01-21T18:25:37.918Z,101441.78
2019-01-21T18:28:06.637Z,101445.03
2019-01-21T18:30:35.268Z,101440.48
2019-01-21T18:33:04.132Z,101429.87
2019-01-21T18:35:32.725Z,101436.50
2019-01-21T18:38:01.371Z,101434.35
2019-01-21T18:40:29.962Z,101438.91
2019-01-21T18:42:58.574Z,101434.73
2019-01-21T18:45:27.299Z,101432.71
2019-01-21T18:47:55.926Z,101430.60
2019-01-21T18:50:24.705Z,101424.34
2019-01-21T18:52:53.375Z,101425.95
2019-01-21T18:55:22.031Z,101421.30
2019-01-21T18:57:55.876Z,101422.39
2019-01-21T19:00:23.277Z,101418.17
2019-01-21T19:02:51.905Z,101417.34
2019-01-21T19:05:20.943Z,101422.81
2019-01-21T19:07:49.738Z,101417.98
2019-01-21T19:10:19.156Z,101425.11
2019-01-21T19:12:47.936Z,101430.82
2019-01-21T19:15:22.679Z,101431.98
2019-01-21T19:17:51.378Z,101431.44
2019-01-21T19:20:20.314Z,101421.58
2019-01-21T19:22:48.945Z,101409.25
2019-01-21T19:25:17.774Z,101411.55
2019-01-21T19:27:46.440Z,101416.83
2019-01-21T19:30:21.080Z,101418.41
2019-01-21T19:32:49.784Z,101416.73
2019-01-21T19:35:21.553Z,101423.62
2019-01-21T19:37:50.236Z,101421.05
2019-01-21T19:40:21.040Z,101415.59
2019-01-21T19:42:49.839Z,101421.50
2019-01-21T19:45:18.985Z,101424.56
2019-01-21T19:47:47.715Z,101416.85
2019-01-21T19:50:19.736Z,101418.92
2019-01-21T19:52:48.420Z,101416.09
2019-01-21T19:55:35.100Z,101412.03
2019-01-21T19:58:03.822Z,101412.53
2019-01-21T20:00:32.474Z,101407.58
2019-01-21T20:03:01.139Z,101407.20
2019-01-21T20:05:29.869Z,101409.02
2019-01-21T20:07:58.506Z,101404.61
2019-01-21T20:10:27.098Z,101410.57
2019-01-21T20:12:55.699Z,101408.47
2019-01-21T20:15:24.391Z,101401.24
2019-01-21T20:17:52.982Z,101398.86
2019-01-21T20:20:27.428Z,101400.17
2019-01-21T20:22:57.679Z,101393.04
2019-01-21T20:25:27.012Z,101391.81
2019-01-21T20:27:55.767Z,101386.63
2019-01-21T20:30:25.291Z,101384.19
2019-01-21T20:32:54.024Z,101385.65
2019-01-21T20:35:23.710Z,101384.36
2019-01-21T20:37:52.362Z,101379.09
2019-01-21T20:40:29.158Z,101378.85
2019-01-21T20:42:57.904Z,101372.73
2019-01-21T20:45:26.600Z,101366.69
2019-01-21T20:47:56.721Z,101371.48
2019-01-21T20:50:30.752Z,101370.45
2019-01-21T20:52:59.546Z,101377.56
2019-01-21T20:55:28.440Z,101369.88
2019-01-21T20:57:57.223Z,101371.19
2019-01-21T21:00:28.618Z,101369.92
2019-01-21T21:02:57.587Z,101377.47
2019-01-21T21:05:26.291Z,101373.91
2019-01-21T21:07:55.148Z,101373.30
2019-01-21T21:10:24.082Z,101374.45
2019-01-21T21:12:52.927Z,101368.41
2019-01-21T21:15:27.428Z,101360.45
2019-01-21T21:17:56.118Z,101364.75
2019-01-21T21:20:24.843Z,101358.02
2019-01-21T21:22:53.570Z,101358.16
2019-01-21T21:25:22.573Z,101357.77
2019-01-21T21:27:51.410Z,101355.50
2019-01-21T21:30:22.582Z,101352.11
2019-01-21T21:32:51.395Z,101357.15
2019-01-21T21:35:20.475Z,101364.09
2019-01-21T21:37:49.310Z,101361.14
2019-01-21T21:40:20.319Z,101358.16
2019-01-21T21:42:49.202Z,101352.17
2019-01-21T21:45:20.384Z,101346.39
2019-01-21T21:47:49.203Z,101341.03
2019-01-21T21:50:20.595Z,101337.75
2019-01-21T21:52:49.355Z,101334.68
2019-01-21T21:55:18.074Z,101330.95
2019-01-21T21:57:48.966Z,101331.72
2019-01-21T22:00:20.435Z,101332.50
2019-01-21T22:02:49.220Z,101331.07
2019-01-21T22:05:18.615Z,101331.34
2019-01-21T22:07:47.404Z,101331.52
2019-01-21T22:10:24.722Z,101325.94
2019-01-21T22:12:53.591Z,101322.01
2019-01-21T22:15:23.986Z,101324.66
2019-01-21T22:17:52.907Z,101329.08
2019-01-21T22:20:23.594Z,101320.20
2019-01-21T22:22:52.618Z,101317.36
2019-01-21T22:25:21.516Z,101311.58
2019-01-21T22:27:50.214Z,101316.11
2019-01-21T22:30:21.146Z,101315.34
2019-01-21T22:32:49.764Z,101308.43
2019-01-21T22:35:18.348Z,101307.09
2019-01-21T22:37:47.457Z,101307.17
2019-01-21T22:40:18.655Z,101303.09
2019-01-21T22:42:47.259Z,101296.62
2019-01-21T22:45:17.465Z,101299.58
2019-01-21T22:47:46.127Z,101298.74
2019-01-21T22:50:16.334Z,101298.32
2019-01-21T22:52:44.972Z,101292.19
2019-01-21T22:55:15.101Z,101286.26
2019-01-21T22:57:43.952Z,101283.36
2019-01-21T23:00:32.157Z,101283.09
2019-01-21T23:03:00.791Z,101283.42
2019-01-21T23:05:29.384Z,101282.35
2019-01-21T23:07:58.059Z,101282.59
2019-01-21T23:10:26.659Z,101279.12
2019-01-21T23:12:55.654Z,101281.53
2019-01-21T23:15:24.336Z,101281.10
2019-01-21T23:17:52.972Z,101277.09
2019-01-21T23:20:21.547Z,101278.20
2019-01-21T23:22:50.163Z,101271.49
2019-01-21T23:25:18.811Z,101272.33
2019-01-21T23:27:47.512Z,101273.47
2019-01-21T23:30:19.296Z,101282.44
2019-01-21T23:32:47.930Z,101275.23
2019-01-21T23:35:18.081Z,101269.22
2019-01-21T23:37:47.062Z,101273.67
2019-01-21T23:40:15.733Z,101272.69
2019-01-21T23:42:44.418Z,101267.03
2019-01-21T23:45:13.507Z,101270.49
2019-01-21T23:47:42.156Z,101274.45
2019-01-21T23:50:13.742Z,101267.78
2019-01-21T23:52:42.849Z,101268.62
2019-01-21T23:55:12.675Z,101269.90
2019-01-21T23:57:41.336Z,101272.67
